Time;durP1;ratioP1;P1;durP2;ratioP2;P2;SDS_P1;SDS_P2;PMS_P1;PMS_P2;Temp;Humidity;BMP_temperature;BMP_pressure;BME280_temperature;BME280_humidity;BME280_pressure;Samples;Min_cycle;Max_cycle;Signal;HPM_P1;HPM_P2
2023/08/13 00:00:54;;;;;;;4.43;2.25;;;20.40;99.90;;;;;;4123259;28;20047;-68
2023/08/13 00:02:54;;;;;;;4.00;1.90;;;20.40;99.90;;;;;;4127525;28;20042;-68
2023/08/13 00:04:55;;;;;;;5.20;2.25;;;20.40;99.90;;;;;;4127727;28;20447;-68
2023/08/13 00:06:56;;;;;;;3.58;1.80;;;20.30;99.90;;;;;;4134609;28;20037;-69
2023/08/13 00:08:56;;;;;;;2.88;1.73;;;20.30;99.90;;;;;;4127781;28;20038;-69
2023/08/13 00:10:57;;;;;;;3.58;2.00;;;20.30;99.90;;;;;;4123823;28;20446;-69
2023/08/13 00:12:57;;;;;;;5.22;2.10;;;20.30;99.90;;;;;;4129684;28;20065;-68
2023/08/13 00:15:00;;;;;;;3.88;1.95;;;20.30;99.90;;;;;;4126007;28;20034;-69
2023/08/13 00:17:01;;;;;;;2.20;1.80;;;20.30;99.90;;;;;;4137137;28;20037;-69
2023/08/13 00:19:03;;;;;;;3.45;2.05;;;20.30;99.90;;;;;;4127903;28;20023;-68
2023/08/13 00:21:03;;;;;;;3.55;1.85;;;20.30;99.90;;;;;;4132447;28;20399;-68
2023/08/13 00:23:04;;;;;;;2.80;1.90;;;20.30;99.90;;;;;;4126902;28;20464;-68
2023/08/13 00:25:05;;;;;;;2.80;1.60;;;20.20;99.90;;;;;;4093968;28;20030;-71
2023/08/13 00:27:06;;;;;;;3.47;2.00;;;20.20;99.90;;;;;;4125473;28;20041;-71
2023/08/13 00:29:08;;;;;;;4.22;2.10;;;20.20;99.90;;;;;;4126247;28;20491;-69
2023/08/13 00:31:08;;;;;;;9.10;2.53;;;20.20;99.90;;;;;;4124971;28;20414;-69
2023/08/13 00:33:09;;;;;;;4.07;1.98;;;20.10;99.90;;;;;;4125977;28;20035;-68
2023/08/13 00:35:10;;;;;;;3.97;1.80;;;20.10;99.90;;;;;;4123999;28;20031;-71
2023/08/13 00:37:11;;;;;;;5.72;2.20;;;20.00;99.90;;;;;;4126774;28;20125;-68
2023/08/13 00:39:12;;;;;;;4.45;1.90;;;20.10;99.90;;;;;;4125493;28;20030;-68
2023/08/13 00:41:13;;;;;;;3.97;1.63;;;20.10;99.90;;;;;;4122439;28;20105;-68
2023/08/13 00:43:13;;;;;;;6.18;2.10;;;20.00;99.90;;;;;;4125148;28;20227;-68
2023/08/13 00:45:14;;;;;;;4.88;2.15;;;20.00;99.90;;;;;;4122411;28;20180;-70
2023/08/13 00:47:14;;;;;;;5.72;2.30;;;20.00;99.90;;;;;;4128720;28;20820;-68
2023/08/13 00:49:16;;;;;;;3.92;1.90;;;20.00;99.90;;;;;;4122767;28;20042;-68
2023/08/13 00:51:22;;;;;;;3.78;1.85;;;20.00;99.90;;;;;;4123065;28;20081;-68
2023/08/13 00:53:23;;;;;;;5.43;2.10;;;20.00;99.90;;;;;;4129963;28;20499;-68
2023/08/13 00:55:25;;;;;;;3.75;1.70;;;20.00;99.90;;;;;;4123792;28;20034;-69
2023/08/13 00:57:25;;;;;;;3.25;1.63;;;20.00;99.90;;;;;;4124189;28;20086;-68
2023/08/13 00:59:27;;;;;;;4.10;1.90;;;20.00;99.90;;;;;;4124359;28;20073;-68
2023/08/13 01:01:28;;;;;;;4.95;1.95;;;20.00;99.90;;;;;;4126534;28;20038;-70
2023/08/13 01:03:28;;;;;;;3.33;1.50;;;20.00;99.90;;;;;;4126211;28;20109;-71
2023/08/13 01:06:00;;;;;;;4.25;1.88;;;19.90;99.90;;;;;;4125191;28;20050;-71
2023/08/13 01:08:22;;;;;;;3.30;1.70;;;19.90;99.90;;;;;;4113399;28;20480;-71
2023/08/13 01:10:31;;;;;;;4.70;1.90;;;19.90;99.90;;;;;;4120373;28;20037;-71
2023/08/13 01:12:43;;;;;;;5.07;1.67;;;20.00;99.90;;;;;;4124049;28;20129;-71
2023/08/13 01:14:55;;;;;;;4.00;1.63;;;19.90;99.90;;;;;;4129150;28;20046;-71
2023/08/13 01:16:57;;;;;;;5.90;2.22;;;19.90;99.90;;;;;;4127440;28;20070;-71
2023/08/13 01:18:58;;;;;;;5.88;2.17;;;19.90;99.90;;;;;;4126547;28;20815;-71
2023/08/13 01:20:59;;;;;;;3.88;1.77;;;19.90;99.90;;;;;;4123985;28;20041;-70
2023/08/13 01:23:00;;;;;;;3.70;1.77;;;19.90;99.90;;;;;;4139222;28;20041;-70
2023/08/13 01:25:00;;;;;;;2.67;1.60;;;19.90;99.90;;;;;;4125079;28;20027;-70
2023/08/13 01:27:26;;;;;;;4.32;2.40;;;19.90;99.90;;;;;;4122653;28;20058;-71
2023/08/13 01:29:48;;;;;;;2.65;1.55;;;19.90;99.90;;;;;;4135504;28;20071;-71
2023/08/13 01:31:51;;;;;;;4.85;2.20;;;19.80;99.90;;;;;;4122138;28;20049;-71
2023/08/13 01:33:52;;;;;;;3.78;1.80;;;19.80;99.90;;;;;;4123825;28;20042;-71
2023/08/13 01:35:57;;;;;;;5.43;2.00;;;19.80;99.90;;;;;;4130778;28;20053;-71
2023/08/13 01:37:59;;;;;;;3.60;1.90;;;19.80;99.90;;;;;;4126893;28;20549;-71
2023/08/13 01:40:00;;;;;;;2.75;1.50;;;19.80;99.90;;;;;;4120802;28;20526;-70
2023/08/13 01:42:01;;;;;;;3.00;1.60;;;19.80;99.90;;;;;;4122363;28;20055;-70
2023/08/13 01:44:01;;;;;;;3.72;1.90;;;19.80;99.90;;;;;;4123153;28;20508;-70
2023/08/13 01:46:03;;;;;;;2.33;1.35;;;19.80;99.90;;;;;;4123199;28;20030;-75
2023/08/13 01:48:04;;;;;;;6.50;2.20;;;19.80;99.90;;;;;;4115281;28;20039;-75
2023/08/13 01:50:06;;;;;;;4.07;1.70;;;19.80;99.90;;;;;;4124097;28;20045;-74
2023/08/13 01:52:06;;;;;;;3.10;1.40;;;19.80;99.90;;;;;;4123199;28;20054;-72
2023/08/13 01:54:07;;;;;;;3.10;1.67;;;19.80;99.90;;;;;;4127191;28;20038;-74
2023/08/13 01:56:07;;;;;;;3.35;1.88;;;19.80;99.90;;;;;;4118073;28;20030;-72
2023/08/13 01:58:09;;;;;;;3.97;1.85;;;19.80;99.90;;;;;;4120916;28;20345;-75
2023/08/13 02:00:12;;;;;;;5.03;1.60;;;19.80;99.90;;;;;;4124314;28;20053;-73
2023/08/13 02:02:13;;;;;;;3.78;1.88;;;19.70;99.90;;;;;;4139899;28;20038;-76
2023/08/13 02:04:13;;;;;;;3.20;1.67;;;19.70;99.90;;;;;;4124914;28;20125;-74
2023/08/13 02:06:14;;;;;;;4.88;1.88;;;19.70;99.90;;;;;;4125157;28;22945;-74
2023/08/13 02:08:14;;;;;;;3.65;1.83;;;19.70;99.90;;;;;;4124721;28;20130;-75
2023/08/13 02:10:15;;;;;;;3.15;1.73;;;19.70;99.90;;;;;;4125743;28;20383;-75
2023/08/13 02:12:16;;;;;;;4.50;2.08;;;19.70;99.90;;;;;;4130324;28;20030;-74
2023/08/13 02:14:16;;;;;;;5.25;1.80;;;19.70;99.90;;;;;;4122253;28;20118;-75
2023/08/13 02:16:17;;;;;;;3.38;1.77;;;19.60;99.90;;;;;;4127046;28;20038;-75
2023/08/13 02:18:18;;;;;;;3.08;1.33;;;19.60;99.90;;;;;;4128370;28;20089;-75
2023/08/13 02:20:18;;;;;;;3.35;1.52;;;19.60;99.90;;;;;;4129718;28;20398;-75
2023/08/13 02:22:19;;;;;;;4.82;2.00;;;19.50;99.90;;;;;;4127414;28;20064;-76
2023/08/13 02:24:19;;;;;;;4.20;1.83;;;19.50;99.90;;;;;;4128406;28;20030;-75
2023/08/13 02:26:20;;;;;;;4.40;1.95;;;19.50;99.90;;;;;;4140788;28;20502;-74
2023/08/13 02:28:21;;;;;;;5.10;2.15;;;19.50;99.90;;;;;;4127575;28;20042;-75
2023/08/13 02:30:21;;;;;;;6.82;2.42;;;19.50;99.90;;;;;;4125805;28;20038;-74
2023/08/13 02:32:22;;;;;;;4.80;1.95;;;19.50;99.90;;;;;;4127206;28;20458;-75
2023/08/13 02:34:23;;;;;;;3.55;2.00;;;19.40;99.90;;;;;;4143258;28;20087;-75
2023/08/13 02:36:24;;;;;;;3.78;2.00;;;19.40;99.90;;;;;;4128964;28;20061;-75
2023/08/13 02:38:24;;;;;;;4.70;2.25;;;19.40;99.90;;;;;;4125493;28;20042;-75
2023/08/13 02:40:25;;;;;;;7.43;2.40;;;19.40;99.90;;;;;;4138861;28;21119;-72
2023/08/13 02:42:25;;;;;;;4.55;1.83;;;19.30;99.90;;;;;;4119452;28;20474;-75
2023/08/13 02:44:26;;;;;;;3.72;2.10;;;19.30;99.90;;;;;;4127603;28;20035;-75
2023/08/13 02:46:27;;;;;;;3.53;1.85;;;19.20;99.90;;;;;;4141055;28;20030;-74
2023/08/13 02:48:27;;;;;;;6.88;2.03;;;19.20;99.90;;;;;;4128001;28;20035;-75
2023/08/13 02:50:28;;;;;;;3.17;1.75;;;19.10;99.90;;;;;;4127966;28;20034;-75
2023/08/13 02:52:30;;;;;;;3.95;2.08;;;19.10;99.90;;;;;;4130994;28;20050;-75
2023/08/13 02:54:30;;;;;;;4.78;2.35;;;19.10;99.90;;;;;;4125577;28;20038;-75
2023/08/13 02:56:31;;;;;;;2.72;1.48;;;19.10;99.90;;;;;;4129194;28;20037;-70
2023/08/13 02:58:31;;;;;;;4.32;1.98;;;19.10;99.90;;;;;;4119083;28;20484;-70
2023/08/13 03:00:32;;;;;;;6.85;2.10;;;19.10;99.90;;;;;;4128906;28;20042;-71
2023/08/13 03:02:33;;;;;;;4.03;2.00;;;19.00;99.90;;;;;;4134564;28;20868;-71
2023/08/13 03:04:33;;;;;;;3.63;1.92;;;19.10;99.90;;;;;;4127588;28;20034;-70
2023/08/13 03:06:34;;;;;;;4.43;1.70;;;19.00;99.90;;;;;;4126191;28;20038;-68
2023/08/13 03:08:35;;;;;;;5.20;2.20;;;19.00;99.90;;;;;;4123734;28;20069;-68
2023/08/13 03:10:35;;;;;;;3.80;1.85;;;19.00;99.90;;;;;;4128383;28;20034;-69
2023/08/13 03:12:36;;;;;;;2.38;1.23;;;19.00;99.90;;;;;;4125240;28;20407;-68
2023/08/13 03:14:36;;;;;;;3.42;1.70;;;19.00;99.90;;;;;;4127774;28;20065;-68
2023/08/13 03:16:37;;;;;;;4.03;1.50;;;19.00;99.90;;;;;;4133656;28;20034;-71
2023/08/13 03:18:38;;;;;;;4.85;1.92;;;19.00;99.90;;;;;;4127508;28;20102;-71
2023/08/13 03:20:38;;;;;;;2.63;1.67;;;19.00;99.90;;;;;;4125922;28;20041;-71
2023/08/13 03:22:39;;;;;;;5.57;1.67;;;19.00;99.90;;;;;;4125943;28;20483;-70
2023/08/13 03:24:40;;;;;;;3.17;1.48;;;19.10;99.90;;;;;;4124690;28;20491;-71
2023/08/13 03:26:40;;;;;;;2.10;1.70;;;19.10;99.90;;;;;;4126820;28;20093;-71
2023/08/13 03:28:41;;;;;;;3.58;1.73;;;19.10;99.90;;;;;;4139335;28;20495;-70
2023/08/13 03:30:42;;;;;;;3.83;1.77;;;19.10;99.90;;;;;;4125911;28;20030;-70
2023/08/13 03:32:42;;;;;;;5.40;1.83;;;19.10;99.90;;;;;;4136554;28;20134;-70
2023/08/13 03:34:43;;;;;;;5.07;2.13;;;19.10;99.90;;;;;;4117418;28;20035;-70
2023/08/13 03:36:44;;;;;;;4.88;1.90;;;19.10;99.90;;;;;;4132460;28;20491;-71
2023/08/13 03:38:44;;;;;;;4.38;1.63;;;19.10;99.90;;;;;;4128995;28;20034;-70
2023/08/13 03:40:45;;;;;;;2.65;1.50;;;19.10;99.90;;;;;;4123454;28;20453;-71
2023/08/13 03:42:46;;;;;;;2.65;1.38;;;19.10;99.90;;;;;;4130713;28;20042;-70
2023/08/13 03:44:46;;;;;;;5.78;1.73;;;19.10;99.90;;;;;;4127988;28;20051;-70
2023/08/13 03:46:47;;;;;;;4.60;1.98;;;19.10;99.90;;;;;;4137350;28;20022;-71
2023/08/13 03:48:47;;;;;;;4.20;1.52;;;19.10;99.90;;;;;;4142721;28;20049;-71
2023/08/13 03:50:48;;;;;;;3.03;1.40;;;19.10;99.90;;;;;;4127812;28;20069;-70
2023/08/13 03:52:49;;;;;;;3.97;1.80;;;19.00;99.90;;;;;;4127102;28;20038;-70
2023/08/13 03:54:49;;;;;;;5.82;1.73;;;19.00;99.90;;;;;;4126190;28;20038;-71
2023/08/13 03:56:50;;;;;;;2.97;1.30;;;19.10;99.90;;;;;;4133110;28;20517;-71
2023/08/13 03:58:51;;;;;;;5.13;1.90;;;19.00;99.90;;;;;;4128053;28;20421;-70
2023/08/13 04:00:51;;;;;;;4.78;1.83;;;19.00;99.90;;;;;;4126690;28;20061;-70
2023/08/13 04:02:52;;;;;;;5.05;1.90;;;19.00;99.90;;;;;;4140529;28;20030;-71
2023/08/13 04:04:53;;;;;;;6.18;2.20;;;19.00;99.90;;;;;;4138199;28;20027;-71
2023/08/13 04:06:53;;;;;;;4.00;1.45;;;19.00;99.90;;;;;;4125873;28;20527;-70
2023/08/13 04:08:54;;;;;;;3.50;1.77;;;19.00;99.90;;;;;;4130184;28;20050;-70
2023/08/13 04:10:54;;;;;;;4.97;1.50;;;19.00;99.90;;;;;;4118481;28;20638;-71
2023/08/13 04:12:56;;;;;;;3.22;1.75;;;19.00;99.90;;;;;;4130011;28;20034;-71
2023/08/13 04:14:56;;;;;;;4.18;1.83;;;19.00;99.90;;;;;;4129596;28;20038;-71
2023/08/13 04:16:57;;;;;;;3.35;1.55;;;19.00;99.90;;;;;;4140570;28;20022;-70
2023/08/13 04:18:57;;;;;;;5.32;1.92;;;18.90;99.90;;;;;;4129039;28;20087;-70
2023/08/13 04:20:58;;;;;;;3.88;1.80;;;18.90;99.90;;;;;;4125208;28;20030;-70
2023/08/13 04:22:59;;;;;;;3.63;1.50;;;19.00;99.90;;;;;;4133672;28;20514;-70
2023/08/13 04:24:59;;;;;;;2.92;1.50;;;18.90;99.90;;;;;;4127899;28;20030;-70
2023/08/13 04:27:00;;;;;;;4.60;1.80;;;18.90;99.90;;;;;;4126345;28;20033;-71
2023/08/13 04:29:00;;;;;;;4.70;1.58;;;18.90;99.90;;;;;;4126420;28;20810;-70
2023/08/13 04:31:01;;;;;;;3.58;1.70;;;18.90;99.90;;;;;;4127017;28;20118;-71
2023/08/13 04:33:02;;;;;;;4.85;1.75;;;18.90;99.90;;;;;;4127779;28;20053;-70
2023/08/13 04:35:04;;;;;;;4.35;1.55;;;18.90;99.90;;;;;;4127918;28;20037;-70
2023/08/13 04:37:04;;;;;;;4.93;1.63;;;18.80;99.90;;;;;;4127157;28;20026;-67
2023/08/13 04:39:05;;;;;;;3.33;1.85;;;18.80;99.90;;;;;;4128811;28;20507;-68
2023/08/13 04:41:06;;;;;;;2.63;1.27;;;18.80;99.90;;;;;;4127015;28;20157;-67
2023/08/13 04:43:07;;;;;;;3.30;1.80;;;18.80;99.90;;;;;;4135380;28;20058;-69
2023/08/13 04:45:09;;;;;;;5.00;1.95;;;18.80;99.90;;;;;;4106951;28;20023;-70
2023/08/13 04:47:09;;;;;;;4.60;1.65;;;18.80;99.90;;;;;;4131516;28;20030;-74
2023/08/13 04:49:10;;;;;;;3.15;1.60;;;18.80;99.90;;;;;;4113076;28;20476;-74
2023/08/13 04:51:11;;;;;;;3.38;1.55;;;18.80;99.90;;;;;;4118545;28;20039;-74
2023/08/13 04:53:12;;;;;;;5.82;1.90;;;18.80;99.90;;;;;;4125954;28;20026;-74
2023/08/13 04:55:12;;;;;;;4.13;1.73;;;18.80;99.90;;;;;;4128958;28;20406;-74
2023/08/13 04:57:13;;;;;;;1.90;1.48;;;18.80;99.90;;;;;;4130315;28;20042;-75
2023/08/13 04:59:14;;;;;;;4.32;1.45;;;18.80;99.90;;;;;;4128963;28;20056;-74
2023/08/13 05:01:14;;;;;;;3.17;1.50;;;18.80;99.90;;;;;;4122626;28;20052;-74
2023/08/13 05:03:15;;;;;;;2.55;1.85;;;18.80;99.90;;;;;;4119071;28;20030;-74
2023/08/13 05:05:15;;;;;;;2.72;1.80;;;18.80;99.90;;;;;;4122304;28;20389;-74
2023/08/13 05:07:16;;;;;;;3.45;1.63;;;18.80;99.90;;;;;;4121912;28;20133;-74
2023/08/13 05:09:16;;;;;;;3.65;1.60;;;18.80;99.90;;;;;;4111984;28;20050;-72
2023/08/13 05:11:20;;;;;;;2.33;1.40;;;18.80;99.90;;;;;;4116928;28;20521;-73
2023/08/13 05:13:20;;;;;;;5.18;1.73;;;18.80;99.90;;;;;;4125186;28;20446;-73
2023/08/13 05:15:21;;;;;;;4.45;1.70;;;18.90;99.90;;;;;;4125741;28;20041;-74
2023/08/13 05:17:22;;;;;;;2.38;1.50;;;18.80;99.90;;;;;;4112157;28;20141;-74
2023/08/13 05:19:23;;;;;;;3.47;1.60;;;18.90;99.90;;;;;;4121275;28;20049;-74
2023/08/13 05:21:23;;;;;;;3.42;1.52;;;18.90;99.90;;;;;;4118657;28;20035;-77
2023/08/13 05:23:27;;;;;;;4.53;1.85;;;18.90;99.90;;;;;;4117545;28;20484;-77
2023/08/13 05:25:29;;;;;;;5.55;1.60;;;18.90;99.90;;;;;;4121027;28;20054;-71
2023/08/13 05:27:29;;;;;;;6.13;2.10;;;19.00;99.90;;;;;;4116534;28;20108;-76
2023/08/13 05:29:30;;;;;;;4.82;2.00;;;19.00;99.90;;;;;;4124722;28;20451;-74
2023/08/13 05:31:31;;;;;;;3.42;1.67;;;19.00;99.90;;;;;;4124611;28;20043;-76
2023/08/13 05:33:31;;;;;;;7.50;1.90;;;19.00;99.90;;;;;;4122452;28;20511;-75
2023/08/13 05:35:32;;;;;;;3.05;1.33;;;19.00;99.90;;;;;;4124870;28;20491;-75
2023/08/13 05:37:33;;;;;;;3.72;1.55;;;19.10;99.90;;;;;;4125090;28;20069;-76
2023/08/13 05:39:33;;;;;;;3.83;1.83;;;19.10;99.90;;;;;;4134155;28;20491;-76
2023/08/13 05:41:34;;;;;;;5.55;1.50;;;19.10;99.90;;;;;;4124816;28;20030;-76
2023/08/13 05:43:35;;;;;;;4.68;1.95;;;19.10;99.90;;;;;;4123640;28;20510;-76
2023/08/13 05:45:35;;;;;;;3.42;1.75;;;19.20;99.90;;;;;;4107595;28;20544;-76
2023/08/13 05:47:36;;;;;;;1.88;1.50;;;19.10;99.90;;;;;;4135701;28;20069;-75
2023/08/13 05:49:36;;;;;;;5.07;2.15;;;19.20;99.90;;;;;;4124753;28;20121;-76
2023/08/13 05:51:37;;;;;;;5.97;1.95;;;19.20;99.90;;;;;;4134166;28;20544;-75
2023/08/13 05:53:38;;;;;;;3.78;1.65;;;19.10;99.90;;;;;;4118148;28;20396;-76
2023/08/13 05:55:38;;;;;;;4.15;1.52;;;19.10;99.90;;;;;;4113066;28;20050;-76
2023/08/13 05:57:39;;;;;;;4.47;2.03;;;19.10;99.90;;;;;;4111348;28;20390;-74
2023/08/13 05:59:40;;;;;;;5.43;1.60;;;19.10;99.90;;;;;;4127375;28;20443;-76
2023/08/13 06:01:40;;;;;;;6.05;1.88;;;19.20;99.90;;;;;;4122763;28;20039;-74
2023/08/13 06:03:41;;;;;;;4.50;1.55;;;19.20;99.90;;;;;;4126102;28;20045;-75
2023/08/13 06:05:41;;;;;;;4.82;1.90;;;19.10;99.90;;;;;;4127624;28;20487;-76
2023/08/13 06:07:42;;;;;;;4.07;1.65;;;19.20;99.90;;;;;;4133958;28;20492;-71
2023/08/13 06:09:43;;;;;;;3.05;1.60;;;19.20;99.90;;;;;;4127002;28;20042;-74
2023/08/13 06:11:43;;;;;;;6.35;1.70;;;19.30;99.90;;;;;;4125066;28;20058;-75
2023/08/13 06:13:44;;;;;;;2.92;1.50;;;19.30;99.90;;;;;;4126509;28;20519;-73
2023/08/13 06:15:44;;;;;;;6.13;1.92;;;19.30;99.90;;;;;;4126314;28;20034;-66
2023/08/13 06:17:47;;;;;;;3.53;1.65;;;19.40;99.90;;;;;;4138309;28;20068;-67
2023/08/13 06:19:48;;;;;;;7.53;1.90;;;19.40;99.90;;;;;;4126163;28;20126;-67
2023/08/13 06:21:49;;;;;;;4.47;1.80;;;19.40;99.90;;;;;;4121902;28;20065;-69
2023/08/13 06:23:49;;;;;;;3.95;1.63;;;19.40;99.90;;;;;;4119353;28;20035;-66
2023/08/13 06:25:50;;;;;;;6.10;1.85;;;19.40;99.90;;;;;;4125161;28;20061;-70
2023/08/13 06:27:51;;;;;;;3.53;1.65;;;19.50;99.90;;;;;;4124621;28;20089;-66
2023/08/13 06:29:51;;;;;;;4.75;1.55;;;19.50;99.90;;;;;;4126850;28;20038;-67
2023/08/13 06:31:52;;;;;;;3.10;1.52;;;19.50;99.90;;;;;;4120983;28;20061;-69
2023/08/13 06:33:53;;;;;;;5.47;1.77;;;19.50;99.90;;;;;;4128727;28;20269;-66
2023/08/13 06:35:53;;;;;;;3.28;1.65;;;19.50;99.90;;;;;;4124843;28;20089;-66
2023/08/13 06:37:54;;;;;;;4.97;1.67;;;19.50;99.90;;;;;;4126705;28;20679;-69
2023/08/13 06:39:55;;;;;;;2.95;1.77;;;19.60;99.90;;;;;;4126494;28;20030;-66
2023/08/13 06:41:56;;;;;;;4.45;1.75;;;19.80;99.90;;;;;;4118815;28;20043;-66
2023/08/13 06:43:57;;;;;;;4.15;1.60;;;20.00;99.90;;;;;;4123125;28;20038;-67
2023/08/13 06:45:59;;;;;;;6.75;2.00;;;20.10;99.90;;;;;;4118719;28;20377;-70
2023/08/13 06:48:00;;;;;;;3.83;1.50;;;20.40;99.90;;;;;;4116295;28;20041;-66
2023/08/13 06:50:00;;;;;;;4.95;1.52;;;20.70;99.90;;;;;;4123787;28;20758;-66
2023/08/13 06:52:01;;;;;;;6.68;2.00;;;20.90;99.90;;;;;;4122790;28;20037;-66
2023/08/13 06:54:02;;;;;;;4.28;1.65;;;21.10;99.90;;;;;;4122332;28;20410;-71
2023/08/13 06:56:03;;;;;;;5.10;1.73;;;21.40;99.90;;;;;;4121216;28;20046;-70
2023/08/13 06:58:04;;;;;;;4.85;1.55;;;21.60;99.90;;;;;;4124313;28;20026;-67
2023/08/13 07:00:05;;;;;;;6.43;2.38;;;22.00;99.90;;;;;;4122532;28;20042;-68
2023/08/13 07:02:06;;;;;;;3.05;1.35;;;22.30;99.90;;;;;;4123366;28;20042;-68
2023/08/13 07:04:07;;;;;;;2.45;1.33;;;22.60;99.90;;;;;;4126375;28;20030;-69
2023/08/13 07:06:07;;;;;;;3.05;1.35;;;22.90;99.90;;;;;;4120244;28;20153;-69
2023/08/13 07:08:09;;;;;;;2.33;1.10;;;23.30;99.90;;;;;;4124446;28;20030;-68
2023/08/13 07:10:10;;;;;;;4.60;1.70;;;23.60;99.90;;;;;;4127785;28;20109;-68
2023/08/13 07:12:10;;;;;;;6.60;2.00;;;23.80;99.90;;;;;;4121793;28;20355;-66
2023/08/13 07:14:11;;;;;;;3.65;1.83;;;24.00;99.90;;;;;;4114375;28;20061;-68
2023/08/13 07:16:13;;;;;;;3.00;1.40;;;24.10;99.90;;;;;;4118111;28;20038;-69
2023/08/13 07:18:14;;;;;;;4.78;1.63;;;24.10;99.90;;;;;;4121636;28;20057;-66
2023/08/13 07:20:15;;;;;;;4.15;1.27;;;24.10;99.90;;;;;;4123516;28;20042;-66
2023/08/13 07:22:16;;;;;;;3.45;1.38;;;24.20;99.90;;;;;;4121784;28;20064;-66
2023/08/13 07:24:17;;;;;;;3.78;2.05;;;24.30;99.90;;;;;;4126218;28;20381;-66
2023/08/13 07:26:17;;;;;;;4.60;1.75;;;24.30;99.90;;;;;;4123292;28;20133;-68
2023/08/13 07:28:18;;;;;;;4.35;1.75;;;24.30;99.90;;;;;;4124036;28;20065;-69
2023/08/13 07:30:19;;;;;;;4.82;1.55;;;24.30;99.90;;;;;;4121245;28;20414;-69
2023/08/13 07:32:20;;;;;;;3.50;1.40;;;24.30;99.90;;;;;;4125818;28;20126;-68
2023/08/13 07:34:21;;;;;;;2.45;1.27;;;24.20;99.90;;;;;;4125371;28;20042;-69
2023/08/13 07:36:21;;;;;;;4.57;1.25;;;24.20;99.90;;;;;;4119177;28;20026;-68
2023/08/13 07:38:22;;;;;;;4.13;1.45;;;24.20;99.90;;;;;;4127010;28;20038;-68
2023/08/13 07:40:23;;;;;;;3.80;1.40;;;24.20;99.90;;;;;;4123452;28;20850;-68
2023/08/13 07:42:23;;;;;;;2.78;1.38;;;24.10;99.90;;;;;;4118302;28;20038;-69
2023/08/13 07:44:25;;;;;;;5.72;1.52;;;24.10;99.90;;;;;;4121857;28;20037;-68
2023/08/13 07:46:26;;;;;;;4.05;1.40;;;24.10;99.90;;;;;;4122644;28;20502;-68
2023/08/13 07:48:27;;;;;;;2.70;1.20;;;24.00;99.90;;;;;;4124270;28;20057;-67
2023/08/13 07:50:29;;;;;;;3.08;1.27;;;24.00;99.90;;;;;;4126553;28;20066;-67
2023/08/13 07:52:31;;;;;;;4.60;1.73;;;24.00;99.90;;;;;;4124225;28;20518;-68
2023/08/13 07:54:32;;;;;;;3.88;1.17;;;24.10;99.90;;;;;;4125363;28;20049;-68
2023/08/13 07:56:32;;;;;;;3.63;1.38;;;24.10;99.90;;;;;;4125312;28;20399;-68
2023/08/13 07:58:33;;;;;;;3.45;1.38;;;24.10;99.90;;;;;;4126345;28;20049;-68
2023/08/13 08:00:34;;;;;;;4.32;1.20;;;24.00;99.90;;;;;;4124205;28;20483;-68
2023/08/13 08:02:34;;;;;;;3.10;1.40;;;24.10;99.90;;;;;;4123970;28;20031;-67
2023/08/13 08:04:35;;;;;;;3.97;1.40;;;24.00;99.90;;;;;;4116873;28;20486;-68
2023/08/13 08:06:36;;;;;;;4.40;1.50;;;24.00;99.90;;;;;;4125895;28;20128;-68
2023/08/13 08:08:36;;;;;;;2.90;1.00;;;23.90;99.90;;;;;;4131214;28;20117;-67
2023/08/13 08:10:37;;;;;;;8.20;2.22;;;24.00;99.90;;;;;;4119081;28;20629;-67
2023/08/13 08:12:38;;;;;;;5.40;1.40;;;23.90;99.90;;;;;;4121884;28;20714;-67
2023/08/13 08:14:38;;;;;;;5.45;1.60;;;23.80;99.90;;;;;;4140552;28;20061;-67
2023/08/13 08:16:39;;;;;;;5.38;1.45;;;23.80;99.90;;;;;;4123360;28;20039;-68
2023/08/13 08:18:40;;;;;;;3.63;1.40;;;23.80;99.90;;;;;;4120751;28;20492;-66
2023/08/13 08:20:40;;;;;;;2.63;1.40;;;23.70;99.90;;;;;;4121616;28;20117;-67
2023/08/13 08:22:41;;;;;;;5.65;1.67;;;23.60;99.90;;;;;;4127740;28;20444;-67
2023/08/13 08:24:41;;;;;;;2.53;1.15;;;23.60;99.90;;;;;;4128095;28;20126;-68
2023/08/13 08:26:42;;;;;;;4.85;1.38;;;23.60;99.90;;;;;;4122819;28;20034;-67
2023/08/13 08:28:43;;;;;;;4.85;1.20;;;23.60;99.90;;;;;;4122864;28;20569;-67
2023/08/13 08:30:43;;;;;;;3.42;1.33;;;23.60;99.90;;;;;;4124782;28;20026;-67
2023/08/13 08:32:44;;;;;;;5.47;1.70;;;23.50;99.90;;;;;;4123136;28;20046;-67
2023/08/13 08:34:45;;;;;;;4.05;1.27;;;23.40;99.90;;;;;;4119144;28;20038;-67
2023/08/13 08:36:45;;;;;;;4.72;1.50;;;23.30;99.90;;;;;;4118759;28;20061;-66
2023/08/13 08:38:46;;;;;;;3.50;1.20;;;23.30;99.90;;;;;;4130184;28;20529;-66
2023/08/13 08:40:48;;;;;;;3.53;1.60;;;23.30;99.90;;;;;;4125666;28;20041;-67
2023/08/13 08:42:49;;;;;;;5.60;1.17;;;23.30;99.90;;;;;;4125780;28;20042;-66
2023/08/13 08:44:50;;;;;;;3.42;1.48;;;23.30;99.90;;;;;;4125852;28;20105;-67
2023/08/13 08:46:53;;;;;;;2.55;1.30;;;23.20;99.90;;;;;;4123574;28;20042;-69
2023/08/13 08:48:55;;;;;;;5.25;1.67;;;23.20;99.90;;;;;;4125324;28;20030;-68
2023/08/13 08:50:56;;;;;;;6.15;1.50;;;23.20;99.90;;;;;;4129679;28;20108;-66
2023/08/13 08:52:57;;;;;;;6.07;2.20;;;23.20;99.90;;;;;;4123579;28;20046;-69
2023/08/13 08:54:59;;;;;;;5.00;1.50;;;23.10;99.90;;;;;;4122199;28;20037;-70
2023/08/13 08:57:00;;;;;;;5.32;1.73;;;23.10;99.90;;;;;;4123957;28;20157;-66
2023/08/13 08:59:00;;;;;;;5.15;1.50;;;23.10;99.90;;;;;;4116568;28;20065;-71
2023/08/13 09:01:01;;;;;;;2.92;1.20;;;23.10;99.90;;;;;;4117663;28;20472;-67
2023/08/13 09:03:03;;;;;;;6.15;1.70;;;23.10;99.90;;;;;;4122745;28;20161;-66
2023/08/13 09:05:05;;;;;;;4.13;1.30;;;23.10;99.90;;;;;;4139787;28;20088;-69
2023/08/13 09:07:06;;;;;;;;;;;23.10;99.90;;;;;;4137926;28;20049;-66
2023/08/13 09:09:06;;;;;;;3.58;1.13;;;23.20;99.90;;;;;;4103786;28;20286;-66
2023/08/13 09:11:08;;;;;;;2.72;1.30;;;23.20;99.90;;;;;;4127503;28;20549;-66
2023/08/13 09:13:09;;;;;;;7.05;1.58;;;23.30;99.90;;;;;;4129251;28;20034;-66
2023/08/13 09:15:12;;;;;;;3.38;1.50;;;23.30;99.90;;;;;;4120839;28;20396;-71
2023/08/13 09:17:12;;;;;;;6.60;1.88;;;23.30;99.90;;;;;;4126174;28;20466;-69
2023/08/13 09:19:14;;;;;;;3.15;1.33;;;23.40;99.90;;;;;;4123994;28;20034;-66
2023/08/13 09:21:15;;;;;;;6.53;1.75;;;23.40;99.90;;;;;;4130028;28;20718;-66
2023/08/13 09:23:23;;;;;;;2.95;1.02;;;23.40;99.90;;;;;;4124815;28;20037;-66
2023/08/13 09:25:24;;;;;;;3.45;1.40;;;23.50;99.90;;;;;;4121184;28;20452;-66
2023/08/13 09:27:25;;;;;;;2.72;1.30;;;23.50;99.90;;;;;;4128916;28;20041;-66
2023/08/13 09:29:29;;;;;;;4.88;1.60;;;23.50;99.90;;;;;;4120827;28;20038;-66
2023/08/13 09:31:29;;;;;;;7.13;1.92;;;23.50;99.90;;;;;;4097629;28;20047;-66
2023/08/13 09:33:32;;;;;;;6.25;1.70;;;23.50;99.90;;;;;;4041549;28;20577;-66
2023/08/13 09:35:33;;;;;;;6.57;1.90;;;23.60;99.90;;;;;;4104044;28;20038;-66
2023/08/13 09:37:33;;;;;;;5.13;1.60;;;23.60;99.90;;;;;;4060383;28;20775;-67
2023/08/13 09:39:34;;;;;;;5.68;1.80;;;23.60;99.90;;;;;;4053307;28;20096;-66
2023/08/13 09:41:36;;;;;;;4.68;1.75;;;23.60;99.90;;;;;;4100291;28;20380;-66
2023/08/13 09:43:39;;;;;;;5.88;1.85;;;23.60;99.90;;;;;;4101019;28;20026;-66
2023/08/13 09:45:43;;;;;;;6.85;1.95;;;23.50;99.90;;;;;;4110810;28;20042;-66
2023/08/13 09:47:45;;;;;;;5.30;1.50;;;23.60;99.90;;;;;;4109890;28;20038;-67
2023/08/13 09:49:46;;;;;;;3.35;1.23;;;23.50;99.90;;;;;;4126105;28;20097;-66
2023/08/13 09:51:49;;;;;;;5.20;1.45;;;23.50;99.90;;;;;;4120527;28;20034;-66
2023/08/13 09:53:55;;;;;;;;;;;23.50;99.90;;;;;;4125903;28;20390;-66
2023/08/13 09:55:59;;;;;;;3.42;1.63;;;23.50;99.90;;;;;;4124553;28;20387;-66
2023/08/13 09:58:04;;;;;;;4.80;1.63;;;23.50;99.90;;;;;;4122179;28;20398;-68
2023/08/13 10:00:10;;;;;;;3.70;1.25;;;23.50;99.90;;;;;;4134484;28;20507;-69
2023/08/13 10:02:14;;;;;;;3.08;1.15;;;23.50;99.90;;;;;;4124854;28;20030;-67
2023/08/13 10:04:15;;;;;;;4.53;1.70;;;23.60;99.90;;;;;;4117804;28;20035;-67
2023/08/13 10:06:18;;;;;;;4.60;1.60;;;23.60;99.90;;;;;;4121246;28;20118;-66
2023/08/13 10:08:19;;;;;;;3.65;1.70;;;23.60;99.90;;;;;;4127656;28;20042;-66
2023/08/13 10:10:20;;;;;;;7.18;1.75;;;23.60;99.90;;;;;;4127160;28;20026;-67
2023/08/13 10:12:22;;;;;;;1.92;1.20;;;23.60;99.90;;;;;;4127421;28;20042;-68
2023/08/13 10:14:23;;;;;;;3.05;1.30;;;23.70;99.90;;;;;;4121694;28;20034;-66
2023/08/13 10:16:25;;;;;;;9.48;1.90;;;23.60;99.90;;;;;;4124693;28;20038;-68
2023/08/13 10:18:28;;;;;;;6.22;1.65;;;23.70;99.90;;;;;;4126893;28;20045;-67
2023/08/13 10:20:29;;;;;;;5.22;1.60;;;23.70;99.90;;;;;;4122521;28;20062;-66
2023/08/13 10:22:37;;;;;;;5.25;1.75;;;23.70;99.90;;;;;;4128460;28;20491;-66
2023/08/13 10:24:38;;;;;;;6.80;2.00;;;23.70;99.90;;;;;;4130093;28;20655;-66
2023/08/13 10:26:42;;;;;;;4.70;1.45;;;23.70;99.90;;;;;;4124261;28;20034;-66
2023/08/13 10:28:52;;;;;;;5.22;1.45;;;23.70;99.90;;;;;;4125435;28;20050;-67
2023/08/13 10:31:25;;;;;;;6.68;1.67;;;23.80;99.90;;;;;;4124327;28;20081;-67
2023/08/13 10:33:29;;;;;;;5.30;1.53;;;23.80;99.90;;;;;;4125381;28;20118;-66